sensor_id;sensor_type;location;lat;lon;timestamp;temperature;humidity
20885;DHT22;10602;48.000;9.654;2024-03-17T08:49:32;13.40;99.90
20885;DHT22;10602;48.000;9.654;2024-03-17T08:51:59;13.80;99.90
20885;DHT22;10602;48.000;9.654;2024-03-17T08:54:27;14.10;1.00
20885;DHT22;10602;48.000;9.654;2024-03-17T08:56:54;14.30;1.00
20885;DHT22;10602;48.000;9.654;2024-03-17T08:59:22;14.40;1.00
20885;DHT22;10602;48.000;9.654;2024-03-17T09:01:49;14.40;1.00
20885;DHT22;10602;48.000;9.654;2024-03-17T09:04:17;14.40;1.00
20885;DHT22;10602;48.000;9.654;2024-03-17T09:06:44;14.50;1.00
20885;DHT22;10602;48.000;9.654;2024-03-17T09:09:13;14.40;1.00
20885;DHT22;10602;48.000;9.654;2024-03-17T09:11:41;14.40;1.00
20885;DHT22;10602;48.000;9.654;2024-03-17T09:14:08;14.50;99.90
20885;DHT22;10602;48.000;9.654;2024-03-17T09:16:38;14.50;99.90
20885;DHT22;10602;48.000;9.654;2024-03-17T09:19:05;14.40;99.90
20885;DHT22;10602;48.000;9.654;2024-03-17T09:21:33;14.20;99.90
20885;DHT22;10602;48.000;9.654;2024-03-17T09:24:00;13.90;1.00
20885;DHT22;10602;48.000;9.654;2024-03-17T09:26:29;13.80;1.00
20885;DHT22;10602;48.000;9.654;2024-03-17T09:28:57;13.60;1.00
20885;DHT22;10602;48.000;9.654;2024-03-17T09:31:24;13.40;1.00
20885;DHT22;10602;48.000;9.654;2024-03-17T09:33:52;13.40;1.00
20885;DHT22;10602;48.000;9.654;2024-03-17T09:36:20;13.50;1.00
20885;DHT22;10602;48.000;9.654;2024-03-17T09:38:48;13.50;1.00
20885;DHT22;10602;48.000;9.654;2024-03-17T09:41:20;13.80;1.00
20885;DHT22;10602;48.000;9.654;2024-03-17T09:43:50;14.10;1.00
20885;DHT22;10602;48.000;9.654;2024-03-17T09:46:19;14.10;99.90
20885;DHT22;10602;48.000;9.654;2024-03-17T09:48:47;14.30;99.90
20885;DHT22;10602;48.000;9.654;2024-03-17T09:51:19;15.20;99.90
20885;DHT22;10602;48.000;9.654;2024-03-17T09:53:47;15.50;99.90
20885;DHT22;10602;48.000;9.654;2024-03-17T09:56:18;15.30;99.90
20885;DHT22;10602;48.000;9.654;2024-03-17T09:58:52;15.20;77.10
20885;DHT22;10602;48.000;9.654;2024-03-17T10:01:19;15.00;95.80
20885;DHT22;10602;48.000;9.654;2024-03-17T10:03:53;14.70;43.00
20885;DHT22;10602;48.000;9.654;2024-03-17T10:06:28;14.80;99.90
20885;DHT22;10602;48.000;9.654;2024-03-17T10:08:58;15.10;99.90
20885;DHT22;10602;48.000;9.654;2024-03-17T10:11:34;15.50;58.80
20885;DHT22;10602;48.000;9.654;2024-03-17T10:14:05;15.70;2.70
20885;DHT22;10602;48.000;9.654;2024-03-17T10:16:35;15.60;1.00
20885;DHT22;10602;48.000;9.654;2024-03-17T10:19:08;15.30;1.00
20885;DHT22;10602;48.000;9.654;2024-03-17T10:21:44;14.60;1.00
20885;DHT22;10602;48.000;9.654;2024-03-17T10:24:24;14.40;51.00
20885;DHT22;10602;48.000;9.654;2024-03-17T10:26:56;14.30;84.00
20885;DHT22;10602;48.000;9.654;2024-03-17T10:29:29;14.10;99.40
20885;DHT22;10602;48.000;9.654;2024-03-17T10:34:33;14.00;99.90
20885;DHT22;10602;48.000;9.654;2024-03-17T10:37:18;14.20;99.90
20885;DHT22;10602;48.000;9.654;2024-03-17T10:39:46;14.90;99.90
20885;DHT22;10602;48.000;9.654;2024-03-17T10:42:27;15.90;1.00
20885;DHT22;10602;48.000;9.654;2024-03-17T10:44:59;16.50;1.00
20885;DHT22;10602;48.000;9.654;2024-03-17T10:47:28;17.20;1.00
20885;DHT22;10602;48.000;9.654;2024-03-17T10:49:56;17.60;1.00
20885;DHT22;10602;48.000;9.654;2024-03-17T10:52:24;18.00;1.00
20885;DHT22;10602;48.000;9.654;2024-03-17T10:54:53;18.30;1.00
20885;DHT22;10602;48.000;9.654;2024-03-17T11:00:06;18.10;1.00
20885;DHT22;10602;48.000;9.654;2024-03-17T11:02:40;18.50;1.00
20885;DHT22;10602;48.000;9.654;2024-03-17T11:05:15;18.50;1.00
20885;DHT22;10602;48.000;9.654;2024-03-17T11:07:45;18.20;1.00
20885;DHT22;10602;48.000;9.654;2024-03-17T11:10:21;17.20;1.00
20885;DHT22;10602;48.000;9.654;2024-03-17T11:12:51;16.30;1.00
20885;DHT22;10602;48.000;9.654;2024-03-17T11:15:34;15.70;1.00
20885;DHT22;10602;48.000;9.654;2024-03-17T11:20:55;15.30;1.00
20885;DHT22;10602;48.000;9.654;2024-03-17T11:23:25;15.50;1.00
20885;DHT22;10602;48.000;9.654;2024-03-17T11:25:49;15.60;1.00
20885;DHT22;10602;48.000;9.654;2024-03-17T11:28:43;15.80;1.00
20885;DHT22;10602;48.000;9.654;2024-03-17T11:30:49;16.20;1.00
20885;DHT22;10602;48.000;9.654;2024-03-17T11:39:02;17.80;1.00
20885;DHT22;10602;48.000;9.654;2024-03-17T11:41:39;18.10;1.00
20885;DHT22;10602;48.000;9.654;2024-03-17T11:46:55;17.50;1.00
20885;DHT22;10602;48.000;9.654;2024-03-17T11:49:38;17.10;1.00
20885;DHT22;10602;48.000;9.654;2024-03-17T11:52:13;16.80;1.00
20885;DHT22;10602;48.000;9.654;2024-03-17T11:54:46;16.20;1.00
20885;DHT22;10602;48.000;9.654;2024-03-17T11:57:24;16.50;1.00
20885;DHT22;10602;48.000;9.654;2024-03-17T11:59:45;17.40;1.00
20885;DHT22;10602;48.000;9.654;2024-03-17T12:04:47;18.20;1.00
20885;DHT22;10602;48.000;9.654;2024-03-17T12:07:16;18.10;1.00
20885;DHT22;10602;48.000;9.654;2024-03-17T12:09:45;17.30;1.00
20885;DHT22;10602;48.000;9.654;2024-03-17T12:12:23;17.10;1.00
20885;DHT22;10602;48.000;9.654;2024-03-17T12:14:51;16.90;1.00
20885;DHT22;10602;48.000;9.654;2024-03-17T12:17:23;16.50;1.00
20885;DHT22;10602;48.000;9.654;2024-03-17T12:19:51;16.70;1.00
20885;DHT22;10602;48.000;9.654;2024-03-17T12:22:21;16.80;1.00
20885;DHT22;10602;48.000;9.654;2024-03-17T12:24:56;16.70;1.00
20885;DHT22;10602;48.000;9.654;2024-03-17T12:27:26;16.70;1.00
20885;DHT22;10602;48.000;9.654;2024-03-17T12:29:55;16.90;1.00
20885;DHT22;10602;48.000;9.654;2024-03-17T12:32:24;17.30;1.00
20885;DHT22;10602;48.000;9.654;2024-03-17T12:34:54;17.40;1.00
20885;DHT22;10602;48.000;9.654;2024-03-17T12:37:24;17.00;1.00
20885;DHT22;10602;48.000;9.654;2024-03-17T12:39:53;16.20;1.00
20885;DHT22;10602;48.000;9.654;2024-03-17T12:42:24;15.70;1.00
20885;DHT22;10602;48.000;9.654;2024-03-17T12:44:53;15.70;1.00
20885;DHT22;10602;48.000;9.654;2024-03-17T12:47:28;16.10;1.00
20885;DHT22;10602;48.000;9.654;2024-03-17T12:49:58;16.40;1.00
20885;DHT22;10602;48.000;9.654;2024-03-17T12:52:33;16.60;1.00
20885;DHT22;10602;48.000;9.654;2024-03-17T12:55:07;16.10;1.00
20885;DHT22;10602;48.000;9.654;2024-03-17T13:01:05;15.30;1.00
20885;DHT22;10602;48.000;9.654;2024-03-17T13:03:34;15.30;1.00
20885;DHT22;10602;48.000;9.654;2024-03-17T13:06:08;15.10;1.00
20885;DHT22;10602;48.000;9.654;2024-03-17T13:08:35;15.30;1.00
20885;DHT22;10602;48.000;9.654;2024-03-17T13:11:02;15.40;1.00
20885;DHT22;10602;48.000;9.654;2024-03-17T13:13:34;15.80;1.00
20885;DHT22;10602;48.000;9.654;2024-03-17T13:16:02;15.40;1.00
20885;DHT22;10602;48.000;9.654;2024-03-17T13:18:29;15.00;1.00
20885;DHT22;10602;48.000;9.654;2024-03-17T13:20:57;15.10;1.00
20885;DHT22;10602;48.000;9.654;2024-03-17T13:23:25;15.10;1.00
20885;DHT22;10602;48.000;9.654;2024-03-17T13:25:53;15.00;1.00
20885;DHT22;10602;48.000;9.654;2024-03-17T13:28:20;14.70;1.00
20885;DHT22;10602;48.000;9.654;2024-03-17T13:30:48;14.50;1.00
20885;DHT22;10602;48.000;9.654;2024-03-17T13:33:15;14.10;1.00
20885;DHT22;10602;48.000;9.654;2024-03-17T13:35:44;13.90;1.00
20885;DHT22;10602;48.000;9.654;2024-03-17T13:38:12;13.70;1.00
20885;DHT22;10602;48.000;9.654;2024-03-17T13:40:40;13.60;1.00
20885;DHT22;10602;48.000;9.654;2024-03-17T13:43:09;13.90;1.00
20885;DHT22;10602;48.000;9.654;2024-03-17T13:45:41;14.00;1.00
20885;DHT22;10602;48.000;9.654;2024-03-17T13:48:10;14.10;1.00
20885;DHT22;10602;48.000;9.654;2024-03-17T13:50:38;13.80;1.00
20885;DHT22;10602;48.000;9.654;2024-03-17T13:53:09;13.80;1.00
20885;DHT22;10602;48.000;9.654;2024-03-17T13:55:36;13.90;1.00
20885;DHT22;10602;48.000;9.654;2024-03-17T13:58:04;13.90;1.00
20885;DHT22;10602;48.000;9.654;2024-03-17T14:00:32;13.70;1.00
20885;DHT22;10602;48.000;9.654;2024-03-17T14:03:05;13.50;1.00
20885;DHT22;10602;48.000;9.654;2024-03-17T14:05:32;13.50;1.00
20885;DHT22;10602;48.000;9.654;2024-03-17T14:08:01;13.40;1.00
20885;DHT22;10602;48.000;9.654;2024-03-17T14:10:31;13.30;1.00
20885;DHT22;10602;48.000;9.654;2024-03-17T14:12:58;13.20;20.50
20885;DHT22;10602;48.000;9.654;2024-03-17T14:15:26;13.00;13.70
20885;DHT22;10602;48.000;9.654;2024-03-17T14:17:53;12.90;79.70
20885;DHT22;10602;48.000;9.654;2024-03-17T14:20:22;12.90;99.90
20885;DHT22;10602;48.000;9.654;2024-03-17T14:22:50;12.80;99.90
20885;DHT22;10602;48.000;9.654;2024-03-17T14:25:20;12.80;99.90
20885;DHT22;10602;48.000;9.654;2024-03-17T14:27:49;12.90;99.90
20885;DHT22;10602;48.000;9.654;2024-03-17T14:30:18;12.90;99.90
20885;DHT22;10602;48.000;9.654;2024-03-17T14:32:46;13.00;99.90
20885;DHT22;10602;48.000;9.654;2024-03-17T14:35:16;13.00;99.90
20885;DHT22;10602;48.000;9.654;2024-03-17T14:37:44;13.00;99.90
20885;DHT22;10602;48.000;9.654;2024-03-17T14:40:16;12.90;99.90
20885;DHT22;10602;48.000;9.654;2024-03-17T14:42:45;12.90;80.20
20885;DHT22;10602;48.000;9.654;2024-03-17T14:45:14;12.90;99.90
20885;DHT22;10602;48.000;9.654;2024-03-17T14:47:42;12.80;99.90
20885;DHT22;10602;48.000;9.654;2024-03-17T14:50:11;12.70;98.30
20885;DHT22;10602;48.000;9.654;2024-03-17T14:52:40;12.50;99.90
20885;DHT22;10602;48.000;9.654;2024-03-17T14:55:09;12.40;99.90
20885;DHT22;10602;48.000;9.654;2024-03-17T14:57:38;12.30;99.90
20885;DHT22;10602;48.000;9.654;2024-03-17T15:00:08;12.20;99.90
20885;DHT22;10602;48.000;9.654;2024-03-17T15:02:44;12.30;99.90
20885;DHT22;10602;48.000;9.654;2024-03-17T15:05:14;12.50;99.90
20885;DHT22;10602;48.000;9.654;2024-03-17T15:07:42;12.50;99.90
20885;DHT22;10602;48.000;9.654;2024-03-17T18:45:40;9.50;90.20
20885;DHT22;10602;48.000;9.654;2024-03-17T18:48:08;9.50;83.00
20885;DHT22;10602;48.000;9.654;2024-03-17T18:50:36;9.50;85.20
20885;DHT22;10602;48.000;9.654;2024-03-17T18:53:04;9.40;88.60
20885;DHT22;10602;48.000;9.654;2024-03-17T18:55:31;9.40;86.70
20885;DHT22;10602;48.000;9.654;2024-03-17T18:57:59;9.40;89.50
20885;DHT22;10602;48.000;9.654;2024-03-17T19:00:27;9.30;83.50
20885;DHT22;10602;48.000;9.654;2024-03-17T19:02:56;9.30;80.00
20885;DHT22;10602;48.000;9.654;2024-03-17T19:05:27;9.30;81.50
20885;DHT22;10602;48.000;9.654;2024-03-17T19:07:56;9.30;87.80
20885;DHT22;10602;48.000;9.654;2024-03-17T19:10:23;9.30;94.60
20885;DHT22;10602;48.000;9.654;2024-03-17T19:12:52;9.30;96.40
20885;DHT22;10602;48.000;9.654;2024-03-17T19:15:19;9.30;99.90
20885;DHT22;10602;48.000;9.654;2024-03-17T19:17:49;9.20;99.90
20885;DHT22;10602;48.000;9.654;2024-03-17T19:20:17;9.20;99.90
20885;DHT22;10602;48.000;9.654;2024-03-17T19:22:45;9.20;99.90
20885;DHT22;10602;48.000;9.654;2024-03-17T19:25:13;9.20;95.40
20885;DHT22;10602;48.000;9.654;2024-03-17T19:27:41;9.20;95.20
20885;DHT22;10602;48.000;9.654;2024-03-17T19:30:10;9.20;97.10
20885;DHT22;10602;48.000;9.654;2024-03-17T19:52:40;9.10;99.90
20885;DHT22;10602;48.000;9.654;2024-03-17T19:55:09;9.10;99.90
20885;DHT22;10602;48.000;9.654;2024-03-17T19:57:37;9.10;99.90
20885;DHT22;10602;48.000;9.654;2024-03-17T20:00:04;9.10;99.90
20885;DHT22;10602;48.000;9.654;2024-03-17T20:02:33;9.10;99.90
20885;DHT22;10602;48.000;9.654;2024-03-17T20:05:02;9.10;99.90
20885;DHT22;10602;48.000;9.654;2024-03-17T20:07:30;9.10;99.90
20885;DHT22;10602;48.000;9.654;2024-03-17T20:09:58;9.10;99.90
20885;DHT22;10602;48.000;9.654;2024-03-17T20:15:50;9.00;99.90
20885;DHT22;10602;48.000;9.654;2024-03-17T20:18:18;9.00;99.90
20885;DHT22;10602;48.000;9.654;2024-03-17T20:20:46;9.00;99.90
20885;DHT22;10602;48.000;9.654;2024-03-17T20:23:13;9.00;99.90
20885;DHT22;10602;48.000;9.654;2024-03-17T20:25:42;9.00;99.90
20885;DHT22;10602;48.000;9.654;2024-03-17T20:28:11;9.00;99.90
20885;DHT22;10602;48.000;9.654;2024-03-17T20:30:39;9.00;99.90
20885;DHT22;10602;48.000;9.654;2024-03-17T20:33:07;9.00;99.90
20885;DHT22;10602;48.000;9.654;2024-03-17T20:35:38;9.00;99.90
20885;DHT22;10602;48.000;9.654;2024-03-17T20:38:05;9.00;99.90
20885;DHT22;10602;48.000;9.654;2024-03-17T20:40:34;8.90;99.90
20885;DHT22;10602;48.000;9.654;2024-03-17T20:43:01;8.90;99.90
20885;DHT22;10602;48.000;9.654;2024-03-17T20:45:29;8.90;99.90
20885;DHT22;10602;48.000;9.654;2024-03-17T20:48:08;8.90;99.90
20885;DHT22;10602;48.000;9.654;2024-03-17T20:54:51;8.90;99.90
20885;DHT22;10602;48.000;9.654;2024-03-17T22:31:55;8.70;99.90
20885;DHT22;10602;48.000;9.654;2024-03-17T22:34:22;8.70;99.90
20885;DHT22;10602;48.000;9.654;2024-03-17T22:36:50;8.70;99.90
20885;DHT22;10602;48.000;9.654;2024-03-17T22:39:17;8.60;99.90
20885;DHT22;10602;48.000;9.654;2024-03-17T22:41:45;8.60;99.90
20885;DHT22;10602;48.000;9.654;2024-03-17T22:44:13;8.60;99.90
20885;DHT22;10602;48.000;9.654;2024-03-17T22:46:41;8.60;99.90
20885;DHT22;10602;48.000;9.654;2024-03-17T22:49:08;8.50;99.90
20885;DHT22;10602;48.000;9.654;2024-03-17T22:51:36;8.60;99.90
20885;DHT22;10602;48.000;9.654;2024-03-17T22:54:04;8.60;99.90
20885;DHT22;10602;48.000;9.654;2024-03-17T22:56:32;8.60;99.90
20885;DHT22;10602;48.000;9.654;2024-03-17T22:58:59;8.60;99.90
20885;DHT22;10602;48.000;9.654;2024-03-17T23:01:27;8.60;99.90
20885;DHT22;10602;48.000;9.654;2024-03-17T23:03:56;8.60;99.90
20885;DHT22;10602;48.000;9.654;2024-03-17T23:06:24;8.60;99.90
20885;DHT22;10602;48.000;9.654;2024-03-17T23:08:51;8.60;99.90
20885;DHT22;10602;48.000;9.654;2024-03-17T23:11:19;8.60;99.90
20885;DHT22;10602;48.000;9.654;2024-03-17T23:13:49;8.60;99.90
20885;DHT22;10602;48.000;9.654;2024-03-17T23:16:18;8.60;99.90
20885;DHT22;10602;48.000;9.654;2024-03-17T23:18:47;8.60;99.90
20885;DHT22;10602;48.000;9.654;2024-03-17T23:21:14;8.50;99.90
20885;DHT22;10602;48.000;9.654;2024-03-17T23:23:43;8.60;99.90
20885;DHT22;10602;48.000;9.654;2024-03-17T23:26:11;8.60;99.90
20885;DHT22;10602;48.000;9.654;2024-03-17T23:28:40;8.60;99.90
20885;DHT22;10602;48.000;9.654;2024-03-17T23:31:08;8.60;99.90
20885;DHT22;10602;48.000;9.654;2024-03-17T23:33:35;8.60;99.90
20885;DHT22;10602;48.000;9.654;2024-03-17T23:36:03;8.60;99.90
20885;DHT22;10602;48.000;9.654;2024-03-17T23:38:30;8.60;99.90
20885;DHT22;10602;48.000;9.654;2024-03-17T23:40:58;8.60;99.90
20885;DHT22;10602;48.000;9.654;2024-03-17T23:43:25;8.60;99.90
20885;DHT22;10602;48.000;9.654;2024-03-17T23:45:53;8.60;99.90
20885;DHT22;10602;48.000;9.654;2024-03-17T23:48:20;8.60;99.90
20885;DHT22;10602;48.000;9.654;2024-03-17T23:50:48;8.60;99.90
20885;DHT22;10602;48.000;9.654;2024-03-17T23:53:15;8.70;99.90
20885;DHT22;10602;48.000;9.654;2024-03-17T23:55:43;8.60;99.90
20885;DHT22;10602;48.000;9.654;2024-03-17T23:58:10;8.60;99.90
